Historyczne dane pomiarowe

Dodano dane terminowe – wersja testowa.

Dane z okresu 1951-2019

Wersja bazy: 1.34 [2019-03-16, lista zmian], aktualizacja planowana na 2019-04-15

Dane meteo z obszaru Polski uzyskane na podstawie danych udostępnionych przez Instytut Meteorologii i Gospodarki Wodnej – Państwowy Instytut Badawczy.

 

Wybierz Datę:    

       

TemperaturaWilgotnośćWiatrCiśnienieOpadyŚniegCzas trwania zjawisk
 Stacja t tx tn tng RH VA  wxwx mslp ppp RRR   cm mm wxwxwxwxwxwxwx
2003-07-16 21.1 27.7 11.1--- 1.7----- 0.0------------
2003-07-17 22.2 29.2 12.8--- 2.0----- 0.0------------
2003-07-18 21.0 27.0 14.8--- 5.7----- 0.0------------
2003-07-19 19.4 22.4 17.2--- 8.0----- 1.0------------
2003-07-20 21.6 27.5 15.9--- 4.7----- 0.0------------
2003-07-21 23.1 30.1 14.2--- 2.7----- 0.0------------
2003-07-22 22.4 27.2 16.3--- 7.0----- 4.8------------
2003-07-23 20.8 26.8 15.9--- 7.3----- 0.0------------
2003-07-24 21.7 28.5 14.4--- 5.3----- 0.0------------
2003-07-25 20.6 25.7 17.0--- 7.7----- 1.0------------
2003-07-26 22.3 28.0 17.8--- 6.3----- 0.0------------
2003-07-27 24.0 31.8 15.5--- 2.3----- 0.0------------
2003-07-28 23.7 31.8 17.2--- 7.0----- 2.5------------
2003-07-29 18.6 22.1 16.9--- 8.0----- 0.0------------
2003-07-30 19.3 25.1 16.7--- 7.3----- 2.2------------
2003-07-31 19.6 26.0 15.7--- 6.3----- 4.0------------
2003-08-01 20.9 28.0 15.8--- 4.7----- 0.0------------
2003-08-02 21.6 27.9 17.1--- 5.3----- 6.0------------
2003-08-03 22.6 28.3 15.4--- 2.3----- 0.0------------
2003-08-04 21.6 29.4 14.5--- 5.7----- 1.3------------
2003-08-05 21.5 28.0 15.0--- 3.3----- 0.0------------
2003-08-06 18.8 26.2 10.5--- 3.0----- 0.0------------
2003-08-07 18.2 25.8 9.3--- 2.7----- 0.0------------
2003-08-08 18.2 26.4 8.6--- 5.3----- 0.0------------
2003-08-09 19.7 26.9 12.4--- 5.7----- 0.0------------
2003-08-10 18.8 25.1 12.4--- 3.0----- 0.0------------
2003-08-11 15.8 22.4 7.9--- 4.3----- 0.0------------
2003-08-12 18.6 25.9 9.9--- 4.0----- 0.0------------
2003-08-13 24.0 32.5 16.5--- 8.0----- 0.5------------
2003-08-14 24.2 29.8 20.9--- 6.0----- 4.7------------
124.6 ms

 

Źródłem pochodzenia danych jest Instytut Meteorologii i Gospodarki Wodnej – Państwowy Instytut Badawczy. Dane Instytutu Meteorologii i Gospodarki Wodnej – Państwowego Instytutu Badawczego zostały przetworzone.

Dane źródłowe można odnaleźć na stronie https://dane.imgw.pl